Station Historical Data
Daily Summary for February 8, 2018 Units:  English    Metric   Both
« Previous Day
Next Day »
Daily Weekly Monthly Yearly Custom
  High: Low: Average:
Temperature: 20.1 °F 8.9 °F 15 °F
Dew Point: 14.0 °F 5.2 °F 10.4 °F
Humidity: 86% 74% 82%
Wind Speed: 15.0mph 0.0mph 5.2mph
Wind Gust: 20.0mph - -
Wind- - SW
Pressure: 30.48 in 30.34 in -
Precipitation: 0.00 in    
Historical Graphs
 
 
Tabular Data for February 8, 2018
Time Temperature Dew Point Pressure Wind Wind Speed Wind Gust Humidity Rainfall Rate (Hourly)
00:04 9.5 °F 5.6 °F 30.35 in SSW 3.0 mph 6.0 mph 84% 0.00 in
00:09 9.3 °F 5.4 °F 30.35 in SSW 2.0 mph 5.0 mph 84% 0.00 in
00:14 9.2 °F 5.3 °F 30.35 in SW 4.0 mph 6.0 mph 84% 0.00 in
00:19 9.2 °F 5.3 °F 30.35 in SW 2.0 mph 5.0 mph 84% 0.00 in
00:24 9.2 °F 5.3 °F 30.35 in SW 3.0 mph 5.0 mph 84% 0.00 in
00:29 9.1 °F 5.2 °F 30.34 in SW 2.0 mph 5.0 mph 84% 0.00 in
00:34 9.2 °F 5.6 °F 30.34 in SW 3.0 mph 5.0 mph 85% 0.00 in
00:39 9.3 °F 5.4 °F 30.34 in SSW 5.0 mph 6.0 mph 84% 0.00 in
00:44 9.3 °F 5.7 °F 30.34 in SSW 3.0 mph 5.0 mph 85% 0.00 in
00:49 9.4 °F 5.8 °F 30.34 in SSW 2.0 mph 6.0 mph 85% 0.00 in
00:54 9.4 °F 5.8 °F 30.34 in SW 1.0 mph 5.0 mph 85% 0.00 in
00:59 9.5 °F 5.9 °F 30.34 in SSW 3.0 mph 6.0 mph 85% 0.00 in
01:04 9.5 °F 5.9 °F 30.35 in SSW 3.0 mph 6.0 mph 85% 0.00 in
01:09 9.4 °F 5.8 °F 30.35 in SSW 3.0 mph 6.0 mph 85% 0.00 in
01:14 9.3 °F 5.7 °F 30.35 in Calm   6.0 mph 85% 0.00 in
01:19 9.2 °F 5.6 °F 30.35 in SW 2.0 mph 7.0 mph 85% 0.00 in
01:24 9.1 °F 5.5 °F 30.35 in WSW 3.0 mph 5.0 mph 85% 0.00 in
01:29 8.9 °F 5.3 °F 30.36 in SW 3.0 mph 7.0 mph 85% 0.00 in
01:34 9.0 °F 5.4 °F 30.36 in SW 3.0 mph 7.0 mph 85% 0.00 in
01:39 9.1 °F 5.5 °F 30.36 in SW 3.0 mph 8.0 mph 85% 0.00 in
01:44 9.3 °F 6.0 °F 30.37 in WSW 5.0 mph 8.0 mph 86% 0.00 in
01:49 9.5 °F 6.2 °F 30.37 in SW 3.0 mph 8.0 mph 86% 0.00 in
01:54 9.6 °F 6.3 °F 30.37 in SW 6.0 mph 13.0 mph 86% 0.00 in
01:59 9.9 °F 6.6 °F 30.37 in SW 3.0 mph 9.0 mph 86% 0.00 in
02:04 10.1 °F 6.7 °F 30.37 in SW 3.0 mph 9.0 mph 86% 0.00 in
02:09 10.4 °F 7.0 °F 30.37 in SW 3.0 mph 7.0 mph 86% 0.00 in
02:14 10.6 °F 7.2 °F 30.37 in SW 3.0 mph 7.0 mph 86% 0.00 in
02:19 10.8 °F 7.4 °F 30.37 in SW 3.0 mph 7.0 mph 86% 0.00 in
02:24 10.9 °F 7.5 °F 30.37 in WSW 3.0 mph 8.0 mph 86% 0.00 in
02:29 11.0 °F 7.6 °F 30.37 in SW 2.0 mph 7.0 mph 86% 0.00 in
02:34 11.1 °F 7.7 °F 30.37 in SW 4.0 mph 8.0 mph 86% 0.00 in
02:39 11.2 °F 7.6 °F 30.37 in SW 4.0 mph 8.0 mph 85% 0.00 in
02:44 11.3 °F 7.7 °F 30.37 in South 2.0 mph 10.0 mph 85% 0.00 in
02:49 11.3 °F 7.7 °F 30.37 in SW 8.0 mph 9.0 mph 85% 0.00 in
02:54 11.3 °F 7.7 °F 30.37 in SSW 4.0 mph 9.0 mph 85% 0.00 in
02:59 11.2 °F 7.6 °F 30.37 in SW 5.0 mph 7.0 mph 85% 0.00 in
03:04 11.0 °F 7.4 °F 30.37 in SW 4.0 mph 7.0 mph 85% 0.00 in
03:09 11.0 °F 7.4 °F 30.37 in SW 4.0 mph 8.0 mph 85% 0.00 in
03:14 11.0 °F 7.4 °F 30.37 in WSW 3.0 mph 8.0 mph 85% 0.00 in
03:19 11.0 °F 7.4 °F 30.37 in WSW 3.0 mph 6.0 mph 85% 0.00 in
03:24 11.0 °F 7.4 °F 30.37 in Calm   5.0 mph 85% 0.00 in
03:29 10.9 °F 7.3 °F 30.37 in SW 2.0 mph 5.0 mph 85% 0.00 in
03:34 10.6 °F 7.0 °F 30.37 in SW 3.0 mph 5.0 mph 85% 0.00 in
03:39 10.4 °F 6.8 °F 30.37 in SW 1.0 mph 4.0 mph 85% 0.00 in
03:44 10.1 °F 6.5 °F 30.37 in SW 2.0 mph 4.0 mph 85% 0.00 in
03:49 9.8 °F 5.9 °F 30.37 in SW 1.0 mph 3.0 mph 84% 0.00 in
03:54 9.5 °F 5.9 °F 30.37 in Calm   2.0 mph 85% 0.00 in
03:59 9.3 °F 5.7 °F 30.37 in SW 1.0 mph 2.0 mph 85% 0.00 in
04:04 9.5 °F 5.9 °F 30.37 in SW 3.0 mph 4.0 mph 85% 0.00 in
04:09 9.8 °F 6.2 °F 30.37 in SW 2.0 mph 5.0 mph 85% 0.00 in
04:14 10.1 °F 6.5 °F 30.37 in SW 2.0 mph 5.0 mph 85% 0.00 in
04:19 10.4 °F 6.8 °F 30.37 in SW 3.0 mph 5.0 mph 85% 0.00 in
04:24 10.7 °F 7.1 °F 30.37 in SW 2.0 mph 6.0 mph 85% 0.00 in
04:29 10.8 °F 7.4 °F 30.37 in SW 2.0 mph 6.0 mph 86% 0.00 in
04:34 11.0 °F 7.6 °F 30.37 in SW 2.0 mph 5.0 mph 86% 0.00 in
04:39 11.2 °F 7.6 °F 30.38 in SW 2.0 mph 6.0 mph 85% 0.00 in
04:44 11.4 °F 8.0 °F 30.38 in SW 3.0 mph 8.0 mph 86% 0.00 in
04:49 11.4 °F 8.0 °F 30.38 in SW 3.0 mph 8.0 mph 86% 0.00 in
04:54 11.6 °F 8.2 °F 30.38 in SSW 3.0 mph 6.0 mph 86% 0.00 in
04:59 11.7 °F 8.3 °F 30.38 in SW 5.0 mph 7.0 mph 86% 0.00 in
05:04 11.8 °F 8.2 °F 30.38 in SW 3.0 mph 6.0 mph 85% 0.00 in
05:09 11.9 °F 8.3 °F 30.38 in SW 4.0 mph 7.0 mph 85% 0.00 in
05:14 11.9 °F 8.5 °F 30.38 in SW 4.0 mph 7.0 mph 86% 0.00 in
05:19 11.7 °F 8.1 °F 30.38 in SW 3.0 mph 7.0 mph 85% 0.00 in
05:24 11.6 °F 8.0 °F 30.38 in SW 4.0 mph 6.0 mph 85% 0.00 in
05:29 11.6 °F 8.0 °F 30.38 in SSW 4.0 mph 7.0 mph 85% 0.00 in
05:34 11.6 °F 8.0 °F 30.39 in SW 3.0 mph 7.0 mph 85% 0.00 in
05:39 11.7 °F 8.1 °F 30.39 in WSW 3.0 mph 7.0 mph 85% 0.00 in
05:44 11.8 °F 8.4 °F 30.39 in SW 4.0 mph 8.0 mph 86% 0.00 in
05:49 11.8 °F 8.4 °F 30.39 in SW 4.0 mph 8.0 mph 86% 0.00 in
05:54 11.9 °F 8.5 °F 30.39 in SW 3.0 mph 7.0 mph 86% 0.00 in
05:59 12.0 °F 8.6 °F 30.39 in SW 5.0 mph 7.0 mph 86% 0.00 in
06:04 12.0 °F 8.6 °F 30.39 in SSW 6.0 mph 7.0 mph 86% 0.00 in
06:09 12.1 °F 8.7 °F 30.39 in SSW 4.0 mph 7.0 mph 86% 0.00 in
06:14 12.2 °F 8.6 °F 30.39 in SW 5.0 mph 8.0 mph 85% 0.00 in
06:19 12.2 °F 8.6 °F 30.39 in SW 3.0 mph 8.0 mph 85% 0.00 in
06:24 12.3 °F 8.7 °F 30.40 in SW 3.0 mph 6.0 mph 85% 0.00 in
06:29 12.3 °F 8.7 °F 30.40 in SW 3.0 mph 7.0 mph 85% 0.00 in
06:34 12.4 °F 8.7 °F 30.40 in SW 3.0 mph 7.0 mph 85% 0.00 in
06:39 12.4 °F 8.7 °F 30.40 in SW 2.0 mph 7.0 mph 85% 0.00 in
06:44 12.4 °F 8.7 °F 30.39 in SW 7.0 mph 7.0 mph 85% 0.00 in
06:49 12.4 °F 8.7 °F 30.39 in SSW 3.0 mph 7.0 mph 85% 0.00 in
06:54 12.4 °F 8.7 °F 30.40 in SSW 3.0 mph 7.0 mph 85% 0.00 in
06:59 12.3 °F 8.7 °F 30.40 in SSW 3.0 mph 4.0 mph 85% 0.00 in
07:04 12.4 °F 8.7 °F 30.40 in SSW 1.0 mph 6.0 mph 85% 0.00 in
07:09 12.4 °F 8.7 °F 30.40 in SSW 4.0 mph 5.0 mph 85% 0.00 in
07:14 12.5 °F 8.8 °F 30.40 in SSW 2.0 mph 7.0 mph 85% 0.00 in
07:19 12.5 °F 8.8 °F 30.40 in SSW 4.0 mph 7.0 mph 85% 0.00 in
07:24 12.6 °F 8.9 °F 30.40 in SSW 3.0 mph 7.0 mph 85% 0.00 in
07:29 12.6 °F 8.9 °F 30.40 in South 6.0 mph 11.0 mph 85% 0.00 in
07:34 12.6 °F 8.9 °F 30.40 in SW 3.0 mph 9.0 mph 85% 0.00 in
07:39 12.6 °F 8.9 °F 30.40 in South 5.0 mph 8.0 mph 85% 0.00 in
07:44 12.5 °F 8.8 °F 30.40 in SW 5.0 mph 11.0 mph 85% 0.00 in
07:49 12.5 °F 8.8 °F 30.41 in SW 5.0 mph 9.0 mph 85% 0.00 in
07:54 12.3 °F 8.7 °F 30.41 in SW 4.0 mph 8.0 mph 85% 0.00 in
07:59 12.3 °F 8.4 °F 30.42 in SW 5.0 mph 9.0 mph 84% 0.00 in
08:04 12.3 °F 8.7 °F 30.41 in SW 5.0 mph 10.0 mph 85% 0.00 in
08:09 12.5 °F 8.8 °F 30.42 in SW 4.0 mph 10.0 mph 85% 0.00 in
08:14 12.8 °F 8.9 °F 30.42 in SW 3.0 mph 8.0 mph 84% 0.00 in
08:19 13.0 °F 9.1 °F 30.42 in SW 4.0 mph 8.0 mph 84% 0.00 in
08:24 13.2 °F 9.3 °F 30.42 in SW 4.0 mph 7.0 mph 84% 0.00 in
08:29 13.6 °F 9.7 °F 30.42 in SW 4.0 mph 8.0 mph 84% 0.00 in
08:34 13.9 °F 10.0 °F 30.42 in SW 3.0 mph 8.0 mph 84% 0.00 in
08:39 14.2 °F 10.3 °F 30.43 in SW 3.0 mph 6.0 mph 84% 0.00 in
08:44 14.4 °F 10.2 °F 30.42 in SSW 3.0 mph 6.0 mph 83% 0.00 in
08:49 14.6 °F 10.4 °F 30.42 in SW 3.0 mph 6.0 mph 83% 0.00 in
08:54 14.9 °F 10.4 °F 30.42 in SW 5.0 mph 8.0 mph 82% 0.00 in
08:59 15.0 °F 10.5 °F 30.43 in SW 2.0 mph 7.0 mph 82% 0.00 in
09:04 15.2 °F 10.4 °F 30.42 in SW 3.0 mph 7.0 mph 81% 0.00 in
09:09 15.5 °F 10.7 °F 30.42 in SW 3.0 mph 6.0 mph 81% 0.00 in
09:14 15.9 °F 10.8 °F 30.42 in SW 3.0 mph 11.0 mph 80% 0.00 in
09:19 16.1 °F 11.0 °F 30.42 in SW 5.0 mph 11.0 mph 80% 0.00 in
09:24 16.3 °F 10.9 °F 30.43 in SW 5.0 mph 11.0 mph 79% 0.00 in
09:29 16.4 °F 11.0 °F 30.43 in SW 5.0 mph 11.0 mph 79% 0.00 in
09:34 16.6 °F 11.2 °F 30.43 in WSW 7.0 mph 11.0 mph 79% 0.00 in
09:39 16.7 °F 11.0 °F 30.43 in WSW 3.0 mph 11.0 mph 78% 0.00 in
09:44 16.9 °F 11.2 °F 30.43 in SSW 6.0 mph 10.0 mph 78% 0.00 in
09:49 17.0 °F 11.3 °F 30.42 in SW 5.0 mph 11.0 mph 78% 0.00 in
09:54 17.2 °F 11.5 °F 30.43 in SW 5.0 mph 8.0 mph 78% 0.00 in
09:59 17.2 °F 11.5 °F 30.43 in WSW 3.0 mph 13.0 mph 78% 0.00 in
10:04 17.5 °F 11.8 °F 30.43 in SW 5.0 mph 7.0 mph 78% 0.00 in
10:09 17.6 °F 11.6 °F 30.43 in WSW 5.0 mph 9.0 mph 77% 0.00 in
10:14 17.8 °F 11.8 °F 30.43 in WSW 5.0 mph 10.0 mph 77% 0.00 in
10:19 17.8 °F 11.8 °F 30.43 in WSW 5.0 mph 10.0 mph 77% 0.00 in
10:24 17.9 °F 11.9 °F 30.43 in WSW 5.0 mph 10.0 mph 77% 0.00 in
10:29 18.0 °F 12.0 °F 30.43 in WSW 5.0 mph 10.0 mph 77% 0.00 in
10:34 18.2 °F 12.2 °F 30.43 in WSW 5.0 mph 10.0 mph 77% 0.00 in
10:39 18.3 °F 12.0 °F 30.43 in SW 7.0 mph 11.0 mph 76% 0.00 in
10:44 18.2 °F 11.9 °F 30.43 in SW 7.0 mph 11.0 mph 76% 0.00 in
10:49 18.3 °F 12.3 °F 30.43 in WSW 4.0 mph 10.0 mph 77% 0.00 in
10:54 18.5 °F 12.5 °F 30.43 in West 8.0 mph 10.0 mph 77% 0.00 in
10:59 18.5 °F 12.5 °F 30.43 in SSW 7.0 mph 13.0 mph 77% 0.00 in
11:04 18.5 °F 12.5 °F 30.43 in SW 8.0 mph 10.0 mph 77% 0.00 in
11:09 18.5 °F 12.8 °F 30.42 in SW 6.0 mph 12.0 mph 78% 0.00 in
11:14 18.8 °F 13.1 °F 30.42 in SW 6.0 mph 12.0 mph 78% 0.00 in
11:19 18.8 °F 13.1 °F 30.42 in SW 7.0 mph 12.0 mph 78% 0.00 in
11:24 18.9 °F 13.2 °F 30.42 in WSW 6.0 mph 13.0 mph 78% 0.00 in
11:29 19.2 °F 13.5 °F 30.42 in WSW 6.0 mph 13.0 mph 78% 0.00 in
11:34 19.1 °F 13.1 °F 30.42 in WSW 9.0 mph 14.0 mph 77% 0.00 in
11:39 19.0 °F 13.0 °F 30.41 in SW 4.0 mph 10.0 mph 77% 0.00 in
11:44 19.3 °F 13.3 °F 30.41 in WSW 6.0 mph 12.0 mph 77% 0.00 in
11:49 19.1 °F 13.1 °F 30.41 in West 5.0 mph 14.0 mph 77% 0.00 in
11:54 19.0 °F 13.0 °F 30.41 in WSW 8.0 mph 14.0 mph 77% 0.00 in
11:59 19.3 °F 13.3 °F 30.41 in WSW 6.0 mph 14.0 mph 77% 0.00 in
12:04 19.0 °F 13.0 °F 30.40 in WSW 10.0 mph 12.0 mph 77% 0.00 in
12:09 19.3 °F 13.3 °F 30.40 in WSW 2.0 mph 11.0 mph 77% 0.00 in
12:14 19.9 °F 13.9 °F 30.40 in WSW 6.0 mph 11.0 mph 77% 0.00 in
12:19 20.1 °F 14.0 °F 30.40 in WSW 5.0 mph 11.0 mph 77% 0.00 in
12:24 19.8 °F 13.5 °F 30.39 in SW 5.0 mph 10.0 mph 76% 0.00 in
12:29 19.8 °F 13.5 °F 30.39 in SW 5.0 mph 11.0 mph 76% 0.00 in
12:34 19.6 °F 13.3 °F 30.39 in WSW 7.0 mph 10.0 mph 76% 0.00 in
12:39 19.7 °F 13.4 °F 30.39 in SW 7.0 mph 9.0 mph 76% 0.00 in
12:44 19.5 °F 12.9 °F 30.39 in SW 7.0 mph 12.0 mph 75% 0.00 in
12:49 19.4 °F 13.1 °F 30.38 in SW 6.0 mph 12.0 mph 76% 0.00 in
12:54 19.3 °F 13.0 °F 30.38 in SW 6.0 mph 11.0 mph 76% 0.00 in
12:59 19.3 °F 13.0 °F 30.38 in SW 8.0 mph 10.0 mph 76% 0.00 in
13:04 19.6 °F 13.3 °F 30.37 in WSW 9.0 mph 9.0 mph 76% 0.00 in
13:09 19.4 °F 13.1 °F 30.37 in SW 6.0 mph 13.0 mph 76% 0.00 in
13:14 19.5 °F 13.5 °F 30.37 in SSW 6.0 mph 10.0 mph 77% 0.00 in
13:19 19.7 °F 13.7 °F 30.37 in SSW 4.0 mph 10.0 mph 77% 0.00 in
13:24 19.5 °F 13.5 °F 30.37 in SW 7.0 mph 13.0 mph 77% 0.00 in
13:29 19.2 °F 13.2 °F 30.37 in WSW 7.0 mph 16.0 mph 77% 0.00 in
13:34 19.3 °F 13.3 °F 30.37 in WSW 7.0 mph 16.0 mph 77% 0.00 in
13:39 19.7 °F 13.7 °F 30.37 in WSW 7.0 mph 14.0 mph 77% 0.00 in
13:44 19.2 °F 12.9 °F 30.37 in WSW 7.0 mph 15.0 mph 76% 0.00 in
13:49 19.1 °F 13.1 °F 30.37 in WSW 8.0 mph 15.0 mph 77% 0.00 in
13:54 19.2 °F 13.2 °F 30.36 in WSW 7.0 mph 15.0 mph 77% 0.00 in
13:59 19.2 °F 13.2 °F 30.36 in WSW 5.0 mph 12.0 mph 77% 0.00 in
14:04 19.5 °F 13.5 °F 30.36 in WSW 13.0 mph 16.0 mph 77% 0.00 in
14:09 19.3 °F 13.0 °F 30.36 in WSW 6.0 mph 19.0 mph 76% 0.00 in
14:14 19.3 °F 12.7 °F 30.37 in SW 13.0 mph 16.0 mph 75% 0.00 in
14:19 19.2 °F 12.6 °F 30.37 in WSW 4.0 mph 15.0 mph 75% 0.00 in
14:24 19.4 °F 12.8 °F 30.36 in SSW 5.0 mph 10.0 mph 75% 0.00 in
14:29 19.6 °F 13.3 °F 30.37 in SW 6.0 mph 16.0 mph 76% 0.00 in
14:34 19.5 °F 13.2 °F 30.36 in SW 7.0 mph 16.0 mph 76% 0.00 in
14:39 19.3 °F 12.7 °F 30.37 in WSW 8.0 mph 14.0 mph 75% 0.00 in
14:44 19.1 °F 12.5 °F 30.37 in WSW 8.0 mph 20.0 mph 75% 0.00 in
14:49 19.1 °F 12.5 °F 30.37 in SW 13.0 mph 13.0 mph 75% 0.00 in
14:54 19.1 °F 12.2 °F 30.37 in WSW 8.0 mph 15.0 mph 74% 0.00 in
14:59 19.1 °F 12.2 °F 30.38 in SSW 6.0 mph 16.0 mph 74% 0.00 in
15:04 19.2 °F 12.3 °F 30.37 in WSW 8.0 mph 15.0 mph 74% 0.00 in
15:09 19.0 °F 12.4 °F 30.38 in WSW 13.0 mph 14.0 mph 75% 0.00 in
15:14 19.1 °F 12.5 °F 30.38 in WSW 9.0 mph 15.0 mph 75% 0.00 in
15:19 18.9 °F 12.3 °F 30.38 in WSW 6.0 mph 18.0 mph 75% 0.00 in
15:24 19.1 °F 13.1 °F 30.38 in WSW 6.0 mph 11.0 mph 77% 0.00 in
15:29 18.9 °F 12.9 °F 30.38 in WSW 7.0 mph 17.0 mph 77% 0.00 in
15:34 18.8 °F 12.8 °F 30.38 in WSW 8.0 mph 17.0 mph 77% 0.00 in
15:39 18.8 °F 12.8 °F 30.38 in WSW 15.0 mph 16.0 mph 77% 0.00 in
15:44 18.5 °F 12.5 °F 30.38 in WSW 8.0 mph 17.0 mph 77% 0.00 in
15:54 18.3 °F 12.6 °F 30.38 in WSW 8.0 mph 14.0 mph 78% 0.00 in
15:59 18.1 °F 12.4 °F 30.39 in WSW 6.0 mph 16.0 mph 78% 0.00 in
16:04 18.1 °F 12.4 °F 30.39 in SW 8.0 mph 16.0 mph 78% 0.00 in
16:09 18.0 °F 12.3 °F 30.39 in WSW 3.0 mph 14.0 mph 78% 0.00 in
16:15 18.0 °F 12.3 °F 30.39 in SSW 7.0 mph 13.0 mph 78% 0.00 in
16:20 18.1 °F 12.4 °F 30.39 in West 6.0 mph 11.0 mph 78% 0.00 in
16:29 17.9 °F 12.2 °F 30.39 in WSW 11.0 mph 13.0 mph 78% 0.00 in
16:34 17.9 °F 12.2 °F 30.39 in WSW 7.0 mph 16.0 mph 78% 0.00 in
16:39 17.9 °F 12.5 °F 30.39 in WSW 7.0 mph 16.0 mph 79% 0.00 in
16:44 17.7 °F 12.3 °F 30.39 in WSW 8.0 mph 14.0 mph 79% 0.00 in
16:49 17.7 °F 12.3 °F 30.39 in WSW 7.0 mph 14.0 mph 79% 0.00 in
16:54 17.6 °F 12.5 °F 30.40 in WSW 7.0 mph 13.0 mph 80% 0.00 in
16:59 17.5 °F 12.4 °F 30.40 in WSW 7.0 mph 16.0 mph 80% 0.00 in
17:04 17.5 °F 12.4 °F 30.40 in SSW 5.0 mph 15.0 mph 80% 0.00 in
17:09 17.4 °F 12.3 °F 30.40 in WSW 2.0 mph 13.0 mph 80% 0.00 in
17:14 17.3 °F 12.5 °F 30.40 in SSW 9.0 mph 12.0 mph 81% 0.00 in
17:19 17.2 °F 12.4 °F 30.40 in SW 9.0 mph 12.0 mph 81% 0.00 in
17:24 17.1 °F 12.3 °F 30.40 in WSW 4.0 mph 13.0 mph 81% 0.00 in
17:29 17.2 °F 12.6 °F 30.40 in SSW 12.0 mph 12.0 mph 82% 0.00 in
17:34 17.1 °F 12.6 °F 30.40 in SW 5.0 mph 16.0 mph 82% 0.00 in
17:39 17.0 °F 12.5 °F 30.40 in WSW 6.0 mph 16.0 mph 82% 0.00 in
17:44 17.0 °F 12.5 °F 30.40 in WSW 6.0 mph 14.0 mph 82% 0.00 in
17:49 16.9 °F 12.6 °F 30.40 in WSW 6.0 mph 14.0 mph 83% 0.00 in
17:54 16.9 °F 12.6 °F 30.41 in SW 5.0 mph 10.0 mph 83% 0.00 in
17:59 16.9 °F 12.6 °F 30.41 in SW 6.0 mph 13.0 mph 83% 0.00 in
18:04 16.9 °F 12.6 °F 30.41 in SW 3.0 mph 13.0 mph 83% 0.00 in
18:09 16.9 °F 12.6 °F 30.41 in WSW 6.0 mph 10.0 mph 83% 0.00 in
18:14 17.0 °F 12.7 °F 30.41 in SW 6.0 mph 11.0 mph 83% 0.00 in
18:19 17.0 °F 13.0 °F 30.41 in SW 10.0 mph 10.0 mph 84% 0.00 in
18:24 17.0 °F 13.0 °F 30.41 in SW 5.0 mph 14.0 mph 84% 0.00 in
18:29 16.9 °F 12.9 °F 30.41 in WSW 5.0 mph 11.0 mph 84% 0.00 in
18:34 16.8 °F 12.8 °F 30.41 in WSW 4.0 mph 9.0 mph 84% 0.00 in
18:39 16.7 °F 12.7 °F 30.41 in WSW 4.0 mph 11.0 mph 84% 0.00 in
18:44 16.7 °F 12.7 °F 30.41 in SW 5.0 mph 11.0 mph 84% 0.00 in
18:49 16.8 °F 12.8 °F 30.42 in WSW 6.0 mph 10.0 mph 84% 0.00 in
18:54 16.9 °F 12.9 °F 30.42 in WSW 6.0 mph 14.0 mph 84% 0.00 in
18:59 16.9 °F 12.9 °F 30.42 in SW 7.0 mph 14.0 mph 84% 0.00 in
19:04 16.9 °F 13.2 °F 30.42 in SW 7.0 mph 14.0 mph 85% 0.00 in
19:09 16.9 °F 13.2 °F 30.42 in SW 5.0 mph 15.0 mph 85% 0.00 in
19:14 16.9 °F 13.2 °F 30.42 in SW 7.0 mph 15.0 mph 85% 0.00 in
19:19 16.9 °F 13.2 °F 30.42 in WSW 6.0 mph 12.0 mph 85% 0.00 in
19:24 16.8 °F 12.8 °F 30.42 in WSW 6.0 mph 12.0 mph 84% 0.00 in
19:29 16.7 °F 13.0 °F 30.42 in South 8.0 mph 11.0 mph 85% 0.00 in
19:34 16.6 °F 12.9 °F 30.42 in SW 9.0 mph 11.0 mph 85% 0.00 in
19:39 16.5 °F 12.8 °F 30.42 in SW 6.0 mph 9.0 mph 85% 0.00 in
19:44 16.2 °F 12.5 °F 30.42 in SW 5.0 mph 10.0 mph 85% 0.00 in
19:49 16.2 °F 12.5 °F 30.43 in WSW 5.0 mph 11.0 mph 85% 0.00 in
19:54 16.1 °F 12.4 °F 30.43 in WSW 6.0 mph 12.0 mph 85% 0.00 in
19:59 16.1 °F 12.1 °F 30.43 in WSW 6.0 mph 16.0 mph 84% 0.00 in
20:04 16.1 °F 12.1 °F 30.43 in WSW 9.0 mph 13.0 mph 84% 0.00 in
20:09 16.0 °F 12.0 °F 30.44 in SW 8.0 mph 15.0 mph 84% 0.00 in
20:14 16.0 °F 12.0 °F 30.44 in WSW 3.0 mph 13.0 mph 84% 0.00 in
20:19 16.0 °F 11.7 °F 30.44 in WSW 7.0 mph 13.0 mph 83% 0.00 in
20:24 15.9 °F 11.7 °F 30.44 in WSW 6.0 mph 13.0 mph 83% 0.00 in
20:29 15.8 °F 11.6 °F 30.45 in WSW 9.0 mph 13.0 mph 83% 0.00 in
20:34 15.7 °F 11.5 °F 30.45 in SW 7.0 mph 11.0 mph 83% 0.00 in
20:39 15.6 °F 11.4 °F 30.45 in WSW 9.0 mph 13.0 mph 83% 0.00 in
20:44 15.4 °F 11.2 °F 30.45 in West 6.0 mph 15.0 mph 83% 0.00 in
20:49 15.3 °F 11.1 °F 30.46 in SW 7.0 mph 15.0 mph 83% 0.00 in
20:54 15.1 °F 10.9 °F 30.46 in WSW 6.0 mph 13.0 mph 83% 0.00 in
20:59 15.1 °F 10.6 °F 30.46 in WSW 7.0 mph 16.0 mph 82% 0.00 in
21:04 15.0 °F 10.5 °F 30.46 in South 6.0 mph 14.0 mph 82% 0.00 in
21:09 14.8 °F 10.3 °F 30.46 in West 7.0 mph 16.0 mph 82% 0.00 in
21:14 14.7 °F 10.2 °F 30.46 in SW 4.0 mph 12.0 mph 82% 0.00 in
21:19 14.5 °F 10.0 °F 30.46 in West 9.0 mph 11.0 mph 82% 0.00 in
21:24 14.3 °F 9.8 °F 30.46 in SW 6.0 mph 11.0 mph 82% 0.00 in
21:29 14.2 °F 9.7 °F 30.46 in SW 6.0 mph 11.0 mph 82% 0.00 in
21:34 14.2 °F 9.7 °F 30.47 in WSW 6.0 mph 16.0 mph 82% 0.00 in
21:39 14.4 °F 10.2 °F 30.47 in SW 7.0 mph 17.0 mph 83% 0.00 in
21:44 14.5 °F 10.3 °F 30.47 in WSW 6.0 mph 15.0 mph 83% 0.00 in
21:49 14.6 °F 10.4 °F 30.47 in WSW 8.0 mph 17.0 mph 83% 0.00 in
21:54 14.6 °F 10.4 °F 30.47 in WSW 7.0 mph 20.0 mph 83% 0.00 in
21:59 14.6 °F 10.4 °F 30.47 in SW 8.0 mph 20.0 mph 83% 0.00 in
22:04 14.6 °F 10.1 °F 30.47 in SW 8.0 mph 18.0 mph 82% 0.00 in
22:09 14.5 °F 10.0 °F 30.47 in WSW 5.0 mph 17.0 mph 82% 0.00 in
22:14 14.4 °F 9.9 °F 30.47 in SW 6.0 mph 15.0 mph 82% 0.00 in
22:19 14.5 °F 10.0 °F 30.48 in South 4.0 mph 17.0 mph 82% 0.00 in
22:24 14.5 °F 10.0 °F 30.48 in SW 8.0 mph 17.0 mph 82% 0.00 in
22:29 14.5 °F 10.0 °F 30.48 in SW 6.0 mph 12.0 mph 82% 0.00 in
22:34 14.6 °F 10.1 °F 30.48 in SW 6.0 mph 12.0 mph 82% 0.00 in
22:39 14.6 °F 10.1 °F 30.48 in SW 6.0 mph 12.0 mph 82% 0.00 in
22:44 14.8 °F 10.3 °F 30.48 in SW 6.0 mph 13.0 mph 82% 0.00 in
22:49 14.8 °F 10.3 °F 30.48 in SW 4.0 mph 13.0 mph 82% 0.00 in
22:54 15.0 °F 10.5 °F 30.48 in WSW 7.0 mph 13.0 mph 82% 0.00 in
22:59 15.1 °F 10.6 °F 30.48 in West 4.0 mph 12.0 mph 82% 0.00 in
23:04 15.2 °F 11.0 °F 30.48 in SW 8.0 mph 15.0 mph 83% 0.00 in
23:09 15.2 °F 11.0 °F 30.48 in WSW 5.0 mph 12.0 mph 83% 0.00 in
23:14 15.3 °F 11.1 °F 30.48 in SW 3.0 mph 12.0 mph 83% 0.00 in
23:19 15.3 °F 11.1 °F 30.48 in WNW 5.0 mph 9.0 mph 83% 0.00 in
23:24 15.4 °F 11.2 °F 30.48 in SW 7.0 mph 10.0 mph 83% 0.00 in
23:29 15.5 °F 11.3 °F 30.48 in SW 6.0 mph 13.0 mph 83% 0.00 in
23:34 15.5 °F 11.3 °F 30.47 in WSW 7.0 mph 13.0 mph 83% 0.00 in
23:39 15.5 °F 11.3 °F 30.47 in WSW 7.0 mph 13.0 mph 83% 0.00 in
23:44 15.5 °F 11.3 °F 30.47 in SW 7.0 mph 13.0 mph 83% 0.00 in
23:49 15.5 °F 11.3 °F 30.47 in SW 7.0 mph 10.0 mph 83% 0.00 in
23:54 15.5 °F 11.3 °F 30.47 in WSW 4.0 mph 10.0 mph 83% 0.00 in
23:59 15.6 °F 11.4 °F 30.47 in SW 5.0 mph 10.0 mph 83% 0.00 in
Buffalo, New York, USA
Compliments of Weather Underground - 2.5 mb